createdAt,value
2018-11-05T00:00:49.825Z,34.60
2018-11-05T00:03:17.816Z,34.47
2018-11-05T00:05:45.817Z,33.53
2018-11-05T00:08:13.912Z,34.60
2018-11-05T00:10:41.895Z,32.83
2018-11-05T00:13:09.900Z,33.70
2018-11-05T00:15:37.900Z,34.03
2018-11-05T00:18:06.045Z,33.07
2018-11-05T00:20:34.239Z,34.43
2018-11-05T00:23:02.250Z,30.27
2018-11-05T00:25:30.281Z,32.23
2018-11-05T00:27:58.339Z,29.10
2018-11-05T00:30:26.323Z,27.50
2018-11-05T00:32:54.421Z,28.20
2018-11-05T00:35:22.433Z,28.03
2018-11-05T00:37:50.469Z,29.80
2018-11-05T00:40:18.477Z,21.83
2018-11-05T00:42:46.589Z,24.57
2018-11-05T00:45:15.084Z,25.87
2018-11-05T00:47:43.536Z,26.07
2018-11-05T00:50:13.219Z,27.20
2018-11-05T00:52:41.217Z,25.50
2018-11-05T00:55:09.858Z,24.63
2018-11-05T00:57:37.913Z,26.37
2018-11-05T01:00:09.444Z,24.50
2018-11-05T01:02:37.737Z,24.40
2018-11-05T01:05:06.800Z,23.90
2018-11-05T01:07:34.845Z,21.10
2018-11-05T01:10:03.066Z,22.77
2018-11-05T01:12:31.148Z,24.17
2018-11-05T01:14:59.182Z,22.33
2018-11-05T01:17:27.177Z,23.50
2018-11-05T01:19:55.185Z,21.13
2018-11-05T01:22:23.200Z,23.87
2018-11-05T01:24:51.262Z,22.80
2018-11-05T01:27:19.269Z,25.43
2018-11-05T01:29:47.297Z,24.40
2018-11-05T01:32:15.297Z,25.03
2018-11-05T01:34:43.337Z,23.30
2018-11-05T01:37:11.622Z,22.60
2018-11-05T01:39:39.593Z,22.90
2018-11-05T01:42:07.711Z,25.83
2018-11-05T01:44:35.704Z,24.00
2018-11-05T01:47:03.734Z,25.00
2018-11-05T01:49:31.799Z,24.90
2018-11-05T01:51:59.857Z,25.60
2018-11-05T01:54:28.033Z,25.87
2018-11-05T01:56:56.066Z,24.40
2018-11-05T01:59:24.113Z,25.70
2018-11-05T02:01:52.130Z,24.93
2018-11-05T02:04:20.171Z,25.37
2018-11-05T02:06:48.221Z,25.60
2018-11-05T02:09:16.253Z,25.03
2018-11-05T02:11:44.264Z,25.10
2018-11-05T02:14:12.331Z,26.40
2018-11-05T02:16:40.320Z,25.57
2018-11-05T02:19:08.340Z,26.87
2018-11-05T02:21:36.322Z,27.13
2018-11-05T02:24:04.310Z,28.20
2018-11-05T02:26:32.296Z,27.70
2018-11-05T02:29:00.277Z,27.83
2018-11-05T02:31:28.297Z,30.10
2018-11-05T02:33:56.477Z,29.40
2018-11-05T02:36:24.529Z,29.43
2018-11-05T02:38:52.548Z,29.03
2018-11-05T02:41:20.551Z,30.20
2018-11-05T02:43:48.578Z,32.90
2018-11-05T02:46:16.643Z,33.50
2018-11-05T02:48:44.622Z,32.00
2018-11-05T02:51:12.681Z,33.10
2018-11-05T02:53:40.669Z,33.67
2018-11-05T02:56:08.745Z,33.50
2018-11-05T02:58:36.761Z,33.27
2018-11-05T03:01:04.777Z,35.73
2018-11-05T03:03:32.793Z,34.27
2018-11-05T03:06:00.813Z,36.20
2018-11-05T03:08:28.824Z,34.40
2018-11-05T03:10:56.848Z,35.87
2018-11-05T03:13:24.852Z,37.10
2018-11-05T03:15:52.952Z,34.60
2018-11-05T03:18:20.951Z,38.43
2018-11-05T03:20:48.996Z,36.87
2018-11-05T03:23:17.100Z,38.07
2018-11-05T03:25:45.093Z,36.40
2018-11-05T03:28:13.124Z,37.90
2018-11-05T03:30:41.195Z,36.60
2018-11-05T03:33:09.290Z,37.70
2018-11-05T03:35:37.325Z,36.50
2018-11-05T03:38:05.349Z,39.17
2018-11-05T03:40:33.360Z,37.40
2018-11-05T03:43:01.352Z,39.07
2018-11-05T03:45:29.385Z,40.50
2018-11-05T03:47:57.419Z,40.17
2018-11-05T03:50:25.407Z,41.50
2018-11-05T03:52:53.393Z,38.97
2018-11-05T03:55:21.459Z,40.00
2018-11-05T03:57:49.404Z,40.37
2018-11-05T04:00:18.313Z,37.47
2018-11-05T04:02:46.332Z,40.60
2018-11-05T04:05:14.375Z,39.83
2018-11-05T04:07:42.419Z,41.87
2018-11-05T04:10:11.591Z,39.27
2018-11-05T04:12:39.561Z,41.33
2018-11-05T04:15:08.046Z,38.83
2018-11-05T04:17:36.052Z,41.50
2018-11-05T04:20:04.445Z,41.90
2018-11-05T04:22:32.525Z,38.87
2018-11-05T04:25:00.502Z,40.83
2018-11-05T04:27:29.172Z,40.30
2018-11-05T04:29:57.206Z,40.03
2018-11-05T04:32:25.224Z,39.07
2018-11-05T04:34:53.225Z,38.50
2018-11-05T04:37:21.328Z,41.70
2018-11-05T04:39:49.331Z,37.50
2018-11-05T04:42:17.328Z,40.90
2018-11-05T04:44:45.356Z,40.43
2018-11-05T04:47:13.445Z,41.70
2018-11-05T04:49:41.445Z,41.47
2018-11-05T04:52:09.465Z,41.60
2018-11-05T04:54:37.510Z,44.73
2018-11-05T04:57:05.559Z,43.10
2018-11-05T04:59:33.554Z,43.60
2018-11-05T05:02:01.596Z,43.73
2018-11-05T05:04:29.709Z,41.10
2018-11-05T05:06:57.713Z,39.47
2018-11-05T05:09:25.744Z,43.00
2018-11-05T05:11:53.769Z,40.57
2018-11-05T05:14:21.748Z,40.80
2018-11-05T05:16:49.810Z,39.43
2018-11-05T05:19:17.788Z,44.00
2018-11-05T05:21:45.809Z,41.80
2018-11-05T05:24:13.809Z,42.47
2018-11-05T05:26:42.907Z,45.57
2018-11-05T05:29:11.072Z,39.27
2018-11-05T05:31:39.637Z,42.40
2018-11-05T05:34:07.845Z,40.83
2018-11-05T05:36:35.828Z,41.00
2018-11-05T05:39:05.101Z,38.40
2018-11-05T05:41:33.233Z,37.47
2018-11-05T05:44:01.231Z,41.77
2018-11-05T05:46:29.236Z,40.17
2018-11-05T05:48:57.228Z,40.77
2018-11-05T05:51:25.301Z,38.47
2018-11-05T05:53:53.324Z,40.53
2018-11-05T05:56:21.299Z,40.30
2018-11-05T05:58:49.295Z,40.63
2018-11-05T06:01:17.462Z,37.03
2018-11-05T06:03:45.625Z,40.17
2018-11-05T06:06:13.762Z,40.10
2018-11-05T06:08:41.668Z,41.87
2018-11-05T06:11:09.637Z,41.70
2018-11-05T06:13:37.632Z,41.00
2018-11-05T06:16:05.678Z,40.10
2018-11-05T06:18:33.828Z,42.33
2018-11-05T06:21:01.902Z,41.33
2018-11-05T06:23:29.914Z,45.33
2018-11-05T06:25:57.924Z,40.90
2018-11-05T06:28:26.014Z,41.13
2018-11-05T06:30:53.965Z,42.50
2018-11-05T06:33:22.055Z,39.87
2018-11-05T06:35:50.161Z,37.30
2018-11-05T06:38:18.201Z,37.83
2018-11-05T06:40:46.221Z,38.43
2018-11-05T06:43:14.275Z,38.20
2018-11-05T06:45:42.297Z,40.97
2018-11-05T06:48:10.296Z,42.70
2018-11-05T06:50:38.289Z,38.67
2018-11-05T06:53:06.388Z,37.43
2018-11-05T06:55:35.568Z,37.77
2018-11-05T06:58:03.611Z,40.10
2018-11-05T07:00:31.629Z,38.97
2018-11-05T07:02:59.616Z,34.17
2018-11-05T07:05:27.661Z,39.10
2018-11-05T07:07:55.704Z,38.10
2018-11-05T07:10:23.823Z,39.67
2018-11-05T07:12:51.817Z,36.63
2018-11-05T07:15:20.429Z,37.00
2018-11-05T07:17:49.186Z,35.90
2018-11-05T07:20:19.216Z,39.27
2018-11-05T07:22:48.220Z,36.60
2018-11-05T07:25:16.493Z,35.70
2018-11-05T07:27:44.604Z,37.13
2018-11-05T07:30:15.638Z,36.13
2018-11-05T07:32:43.760Z,39.30
2018-11-05T07:35:13.007Z,34.30
2018-11-05T07:37:41.485Z,35.83
2018-11-05T07:40:10.837Z,35.47
2018-11-05T07:42:39.188Z,36.40
2018-11-05T07:45:09.265Z,32.60
2018-11-05T07:47:37.280Z,35.90
2018-11-05T07:50:07.661Z,33.00
2018-11-05T07:52:35.556Z,34.13
2018-11-05T07:55:03.605Z,33.13
2018-11-05T07:57:31.617Z,34.57
2018-11-05T07:59:59.616Z,31.57
2018-11-05T08:02:28.663Z,32.40
2018-11-05T08:04:56.658Z,33.57
2018-11-05T08:07:24.653Z,33.23
2018-11-05T08:09:52.681Z,32.17
2018-11-05T08:12:20.681Z,32.47
2018-11-05T08:14:48.673Z,35.20
2018-11-05T08:17:16.655Z,31.83
2018-11-05T08:19:44.669Z,34.00
2018-11-05T08:22:12.673Z,33.63
2018-11-05T08:24:40.697Z,35.63
2018-11-05T08:27:08.713Z,31.03
2018-11-05T08:29:36.709Z,33.50
2018-11-05T08:32:04.703Z,34.30
2018-11-05T08:34:32.693Z,29.17
2018-11-05T08:37:00.705Z,32.77
2018-11-05T08:39:28.745Z,33.60
2018-11-05T08:41:56.748Z,35.33
2018-11-05T08:44:24.760Z,35.23
2018-11-05T08:46:53.597Z,36.20
2018-11-05T08:49:21.616Z,34.30
2018-11-05T08:51:49.768Z,38.60
2018-11-05T08:54:17.674Z,35.20
2018-11-05T08:56:45.689Z,36.03
2018-11-05T08:59:13.694Z,35.97
2018-11-05T09:01:41.699Z,38.70
2018-11-05T09:04:09.692Z,37.83
2018-11-05T09:06:37.730Z,38.83
2018-11-05T09:09:07.504Z,38.07
2018-11-05T09:11:36.033Z,39.47
2018-11-05T09:14:03.773Z,37.10
2018-11-05T09:16:31.785Z,39.97
2018-11-05T09:18:59.813Z,39.37
2018-11-05T09:21:27.832Z,40.53
2018-11-05T09:24:59.392Z,40.73
2018-11-05T09:27:27.405Z,38.00
2018-11-05T09:29:55.423Z,38.30
2018-11-05T09:32:23.505Z,39.00
2018-11-05T09:34:51.518Z,36.90
2018-11-05T09:37:19.545Z,39.20
2018-11-05T09:39:47.557Z,38.70
2018-11-05T09:42:15.608Z,39.40
2018-11-05T09:44:43.659Z,34.97
2018-11-05T09:47:11.638Z,35.30
2018-11-05T09:49:39.818Z,35.60
2018-11-05T09:52:07.857Z,39.23
2018-11-05T09:54:35.945Z,34.13
2018-11-05T09:57:04.061Z,35.80
2018-11-05T09:59:32.041Z,34.73
2018-11-05T10:02:00.120Z,34.03
2018-11-05T10:04:28.281Z,34.40
2018-11-05T10:06:56.192Z,35.70
2018-11-05T10:09:24.271Z,36.63
2018-11-05T10:11:52.325Z,32.77
2018-11-05T10:14:20.337Z,35.90
2018-11-05T10:16:48.364Z,33.83
2018-11-05T10:19:16.377Z,33.43
2018-11-05T10:21:44.421Z,34.83
2018-11-05T10:24:12.449Z,35.50
2018-11-05T10:26:40.492Z,36.50
2018-11-05T10:29:08.603Z,33.70
2018-11-05T10:31:37.349Z,36.80
2018-11-05T10:34:05.554Z,35.40
2018-11-05T10:36:33.577Z,35.87
2018-11-05T10:39:01.635Z,34.13
2018-11-05T10:41:29.661Z,37.50
2018-11-05T10:43:57.665Z,38.10
2018-11-05T10:46:25.874Z,36.10
2018-11-05T10:48:53.764Z,36.17
2018-11-05T10:51:21.836Z,36.67
2018-11-05T10:53:49.776Z,37.30
2018-11-05T10:56:17.779Z,35.30
2018-11-05T10:58:45.757Z,36.00
2018-11-05T11:01:15.151Z,37.13
2018-11-05T11:03:47.393Z,35.87
2018-11-05T11:06:15.406Z,35.97
2018-11-05T11:08:43.388Z,37.53
2018-11-05T11:11:11.377Z,34.83
2018-11-05T11:13:39.453Z,36.00
2018-11-05T11:16:07.487Z,37.80
2018-11-05T11:18:35.509Z,36.33
2018-11-05T11:21:03.633Z,36.60
2018-11-05T11:23:31.664Z,37.93
2018-11-05T11:25:59.706Z,37.30
2018-11-05T11:28:27.968Z,37.77
2018-11-05T11:30:55.877Z,34.50
2018-11-05T11:33:23.897Z,36.50
2018-11-05T11:35:51.921Z,38.40
2018-11-05T11:38:20.005Z,35.70
2018-11-05T11:40:48.156Z,36.60
2018-11-05T11:43:16.183Z,34.20
2018-11-05T11:45:44.211Z,38.67
2018-11-05T11:48:12.332Z,36.50
2018-11-05T11:50:40.349Z,36.50
2018-11-05T11:53:08.437Z,38.90
2018-11-05T11:55:36.365Z,39.50
2018-11-05T11:58:04.647Z,38.60
2018-11-05T12:00:32.708Z,38.70
2018-11-05T12:03:00.734Z,39.57
2018-11-05T12:05:28.905Z,38.27
2018-11-05T12:07:56.855Z,39.97
2018-11-05T12:10:25.205Z,38.70
2018-11-05T12:12:53.360Z,40.73
2018-11-05T12:15:22.242Z,42.10
2018-11-05T12:17:51.260Z,39.93
2018-11-05T12:20:20.692Z,41.37
2018-11-05T12:22:49.336Z,42.17
2018-11-05T12:25:17.353Z,41.90
2018-11-05T12:27:45.387Z,40.93
2018-11-05T12:30:20.589Z,42.00
2018-11-05T12:32:49.374Z,41.20
2018-11-05T12:35:17.448Z,42.63
2018-11-05T12:37:46.613Z,42.80
2018-11-05T12:40:15.796Z,41.67
2018-11-05T12:42:44.793Z,42.97
2018-11-05T12:45:12.802Z,42.27
2018-11-05T12:47:40.885Z,40.53
2018-11-05T12:50:12.325Z,45.03
2018-11-05T12:52:40.425Z,41.00
2018-11-05T12:55:09.224Z,43.17
2018-11-05T12:57:37.294Z,44.90
2018-11-05T13:00:07.806Z,39.90
2018-11-05T13:02:35.814Z,42.87
2018-11-05T13:05:03.841Z,38.47
2018-11-05T13:07:31.903Z,39.97
2018-11-05T13:09:59.901Z,41.87
2018-11-05T13:12:27.887Z,40.20
2018-11-05T13:14:55.904Z,39.47
2018-11-05T13:17:23.945Z,38.00
2018-11-05T13:19:52.119Z,38.33
2018-11-05T13:22:20.322Z,38.10
2018-11-05T13:24:48.177Z,38.57
2018-11-05T13:27:16.234Z,39.50
2018-11-05T13:29:44.279Z,39.10
2018-11-05T13:32:12.315Z,35.57
2018-11-05T13:34:40.393Z,35.17
2018-11-05T13:37:08.582Z,37.60
2018-11-05T13:39:36.544Z,36.73
2018-11-05T13:42:04.582Z,37.13
2018-11-05T13:44:32.644Z,38.80
2018-11-05T13:47:01.217Z,36.17
2018-11-05T13:49:29.048Z,35.87
2018-11-05T13:51:56.917Z,36.93
2018-11-05T13:54:25.209Z,37.27
2018-11-05T13:56:53.275Z,37.23
2018-11-05T13:59:21.309Z,35.93
2018-11-05T14:01:50.460Z,36.70
2018-11-05T14:06:57.998Z,34.60
2018-11-05T14:09:26.058Z,37.30
2018-11-05T14:11:54.094Z,37.60
2018-11-05T14:14:22.076Z,38.70
2018-11-05T14:16:50.423Z,35.93
2018-11-05T14:19:18.469Z,37.80
2018-11-05T14:21:46.476Z,38.50
2018-11-05T14:24:14.484Z,35.80
2018-11-05T14:26:42.504Z,40.17
2018-11-05T14:29:10.963Z,38.00
2018-11-05T14:31:38.810Z,35.90
2018-11-05T14:34:06.825Z,38.40
2018-11-05T14:36:34.961Z,40.30
2018-11-05T14:39:03.997Z,36.57
2018-11-05T14:41:32.093Z,36.70
2018-11-05T14:44:00.123Z,37.20
2018-11-05T14:46:28.128Z,36.60
2018-11-05T14:48:56.120Z,37.50
2018-11-05T14:51:24.137Z,40.73
2018-11-05T14:53:52.140Z,40.10
2018-11-05T14:56:20.212Z,36.80
2018-11-05T14:58:48.233Z,39.80
2018-11-05T15:01:16.453Z,39.77
2018-11-05T15:03:44.477Z,39.43
2018-11-05T15:06:12.630Z,40.60
2018-11-05T15:08:40.844Z,38.47
2018-11-05T15:11:08.816Z,37.40
2018-11-05T15:13:36.818Z,40.53
2018-11-05T15:16:04.844Z,40.13
2018-11-05T15:18:33.077Z,38.13
2018-11-05T15:21:00.901Z,39.90
2018-11-05T15:23:28.884Z,38.10
2018-11-05T15:25:57.000Z,41.73
2018-11-05T15:28:24.998Z,40.70
2018-11-05T15:30:52.996Z,42.40
2018-11-05T15:33:21.060Z,42.27
2018-11-05T15:35:49.113Z,39.47
2018-11-05T15:38:17.133Z,42.27
2018-11-05T15:40:45.117Z,43.10
2018-11-05T15:43:13.119Z,47.10
2018-11-05T15:45:41.172Z,43.50
2018-11-05T15:48:09.246Z,43.50
2018-11-05T15:50:37.264Z,43.87
2018-11-05T15:53:05.597Z,45.67
2018-11-05T15:55:33.420Z,46.43
2018-11-05T15:58:01.513Z,46.43
2018-11-05T16:00:29.540Z,44.30
2018-11-05T16:02:59.001Z,43.80
2018-11-05T16:05:27.058Z,44.50
2018-11-05T16:07:55.192Z,44.53
2018-11-05T16:10:23.424Z,44.80
2018-11-05T16:12:51.429Z,42.47
2018-11-05T16:15:19.449Z,44.50
2018-11-05T16:17:47.484Z,43.77
2018-11-05T16:20:17.751Z,45.73
2018-11-05T16:22:46.340Z,47.27
2018-11-05T16:25:14.451Z,47.33
2018-11-05T16:27:42.881Z,44.67
2018-11-05T16:30:12.963Z,44.57
2018-11-05T16:32:41.380Z,45.67
2018-11-05T16:35:09.634Z,45.70
2018-11-05T16:37:37.638Z,45.00
2018-11-05T16:40:07.781Z,43.57
2018-11-05T16:42:35.930Z,45.43
2018-11-05T16:45:03.997Z,48.70
2018-11-05T16:47:32.043Z,45.77
2018-11-05T16:50:00.045Z,46.30
2018-11-05T16:52:28.180Z,47.63
2018-11-05T16:54:56.372Z,49.57
2018-11-05T16:57:24.449Z,47.77
2018-11-05T16:59:52.431Z,52.20
2018-11-05T17:02:20.832Z,53.93
2018-11-05T17:04:48.420Z,51.63
2018-11-05T17:07:16.509Z,51.80
2018-11-05T17:09:44.609Z,48.67
2018-11-05T17:12:12.613Z,50.20
2018-11-05T17:14:40.620Z,49.80
2018-11-05T17:17:08.632Z,49.67
2018-11-05T17:19:36.710Z,52.37
2018-11-05T17:22:04.715Z,50.93
2018-11-05T17:24:32.931Z,52.30
2018-11-05T17:27:00.972Z,51.90
2018-11-05T17:29:28.976Z,53.77
2018-11-05T17:31:57.091Z,53.00
2018-11-05T17:34:25.113Z,57.03
2018-11-05T17:36:53.218Z,53.27
2018-11-05T17:39:21.282Z,53.37
2018-11-05T17:41:49.293Z,51.20
2018-11-05T17:44:17.533Z,55.73
2018-11-05T17:46:45.565Z,53.20
2018-11-05T17:49:13.925Z,54.40
2018-11-05T17:51:42.033Z,54.07
2018-11-05T17:54:10.285Z,54.87
2018-11-05T17:56:38.404Z,54.57
2018-11-05T17:59:06.666Z,52.90
2018-11-05T18:01:34.725Z,54.43
2018-11-05T18:04:02.944Z,55.00
2018-11-05T18:06:31.305Z,53.57
2018-11-05T18:08:59.449Z,56.20
2018-11-05T18:11:27.340Z,57.70
2018-11-05T18:13:55.474Z,57.33
2018-11-05T18:16:23.468Z,58.57
2018-11-05T18:18:51.496Z,57.07
2018-11-05T18:21:19.601Z,59.23
2018-11-05T18:23:47.617Z,61.03
2018-11-05T18:26:16.082Z,57.47
2018-11-05T18:28:44.321Z,58.57
2018-11-05T18:31:12.418Z,57.05
2018-11-05T18:33:40.454Z,60.47
2018-11-05T18:36:08.554Z,58.30
2018-11-05T18:38:36.665Z,58.13
2018-11-05T18:41:04.961Z,60.20
2018-11-05T18:43:32.981Z,64.67
2018-11-05T18:46:01.004Z,60.13
2018-11-05T18:48:29.017Z,62.07
2018-11-05T18:50:57.076Z,62.33
2018-11-05T18:53:25.169Z,63.20
2018-11-05T18:55:53.189Z,61.33
2018-11-05T18:58:21.256Z,56.30
2018-11-05T19:00:49.392Z,64.47
2018-11-05T19:03:17.846Z,62.60
2018-11-05T19:05:45.821Z,64.43
2018-11-05T19:08:13.854Z,66.97
2018-11-05T19:10:41.900Z,65.50
2018-11-05T19:13:10.020Z,64.40
2018-11-05T19:15:38.148Z,61.67
2018-11-05T19:18:06.280Z,65.87
2018-11-05T19:20:34.325Z,66.13
2018-11-05T19:23:03.096Z,65.50
2018-11-05T19:25:30.867Z,68.33
2018-11-05T19:27:58.880Z,67.40
2018-11-05T19:30:27.873Z,59.37
2018-11-05T19:32:55.876Z,57.17
2018-11-05T19:35:23.875Z,52.70
2018-11-05T19:37:51.897Z,57.80
2018-11-05T19:40:20.331Z,56.37
2018-11-05T19:42:49.004Z,58.33
2018-11-05T19:45:18.109Z,58.43
2018-11-05T19:47:46.205Z,65.90
2018-11-05T19:50:15.909Z,65.30
2018-11-05T19:52:44.674Z,68.80
2018-11-05T19:55:13.776Z,63.17
2018-11-05T19:57:42.661Z,60.20
2018-11-05T20:00:30.637Z,60.60
2018-11-05T20:03:00.367Z,63.30
2018-11-05T20:05:29.259Z,65.40
2018-11-05T20:07:58.553Z,67.77
2018-11-05T20:10:27.372Z,67.50
2018-11-05T20:12:56.065Z,69.57
2018-11-05T20:15:24.753Z,69.50
2018-11-05T20:17:54.379Z,61.73
2018-11-05T20:20:23.960Z,62.30
2018-11-05T20:22:52.574Z,62.30
2018-11-05T20:25:21.331Z,66.57
2018-11-05T20:27:50.097Z,64.30
2018-11-05T20:30:20.795Z,65.07
2018-11-05T20:32:49.869Z,64.83
2018-11-05T20:35:17.784Z,62.70
2018-11-05T20:37:45.872Z,64.17
2018-11-05T20:40:16.100Z,62.27
2018-11-05T20:42:45.222Z,65.40
2018-11-05T20:45:13.628Z,66.90
2018-11-05T20:47:41.930Z,66.00
2018-11-05T20:50:10.809Z,66.13
2018-11-05T20:52:39.239Z,66.60
2018-11-05T20:55:07.828Z,69.27
2018-11-05T20:57:35.867Z,67.43
2018-11-05T21:00:05.568Z,64.17
2018-11-05T21:02:33.573Z,65.17
2018-11-05T21:05:01.610Z,65.37
2018-11-05T21:07:29.668Z,65.00
2018-11-05T21:09:57.714Z,65.37
2018-11-05T21:12:25.772Z,64.20
2018-11-05T21:14:53.790Z,63.97
2018-11-05T21:17:21.816Z,65.03
2018-11-05T21:19:49.836Z,64.17
2018-11-05T21:22:18.094Z,64.47
2018-11-05T21:27:08.284Z,77.87
2018-11-05T21:29:37.215Z,59.70
2018-11-05T21:32:06.028Z,67.60
2018-11-05T21:34:34.364Z,63.93
2018-11-05T21:37:02.484Z,62.50
2018-11-05T21:39:30.593Z,63.40
2018-11-05T21:41:58.592Z,60.27
2018-11-05T21:44:26.592Z,64.30
2018-11-05T21:46:54.597Z,56.90
2018-11-05T21:49:22.642Z,69.53
2018-11-05T21:51:50.694Z,63.17
2018-11-05T21:54:18.769Z,61.07
2018-11-05T21:56:46.705Z,62.60
2018-11-05T21:59:14.690Z,60.80
2018-11-05T22:01:42.719Z,67.90
2018-11-05T22:04:10.733Z,68.43
2018-11-05T22:06:38.748Z,66.80
2018-11-05T22:09:08.173Z,68.77
2018-11-05T22:11:36.169Z,70.90
2018-11-05T22:14:04.293Z,76.50
2018-11-05T22:16:32.379Z,71.43
2018-11-05T22:19:00.376Z,65.83
2018-11-05T22:21:28.533Z,69.13
2018-11-05T22:23:56.524Z,65.60
2018-11-05T22:26:24.542Z,62.80
2018-11-05T22:28:52.611Z,62.17
2018-11-05T22:31:20.673Z,67.15
2018-11-05T22:33:48.684Z,64.13
2018-11-05T22:36:16.719Z,65.97
2018-11-05T22:38:44.961Z,63.20
2018-11-05T22:41:13.025Z,66.80
2018-11-05T22:43:41.085Z,68.67
2018-11-05T22:46:09.073Z,66.47
2018-11-05T22:48:37.076Z,62.50
2018-11-05T22:51:05.156Z,64.40
2018-11-05T22:53:33.273Z,62.40
2018-11-05T22:56:01.404Z,62.73
2018-11-05T22:58:29.473Z,64.40
2018-11-05T23:01:03.247Z,64.60
2018-11-05T23:03:31.658Z,63.10
2018-11-05T23:06:00.069Z,68.07
2018-11-05T23:08:28.137Z,69.57
2018-11-05T23:10:56.414Z,65.50
2018-11-05T23:13:24.517Z,66.50
2018-11-05T23:15:52.559Z,66.80
2018-11-05T23:18:20.624Z,69.80
2018-11-05T23:20:48.616Z,67.67
2018-11-05T23:23:16.644Z,69.83
2018-11-05T23:25:44.671Z,69.13
2018-11-05T23:28:12.731Z,67.70
2018-11-05T23:30:40.741Z,63.17
2018-11-05T23:33:08.739Z,64.60
2018-11-05T23:35:36.765Z,67.17
2018-11-05T23:38:05.215Z,67.07
2018-11-05T23:40:33.167Z,64.37
2018-11-05T23:43:01.180Z,66.80
2018-11-05T23:45:29.161Z,67.93
2018-11-05T23:47:57.177Z,77.20
2018-11-05T23:50:25.186Z,99.50
2018-11-05T23:52:53.204Z,113.23
2018-11-05T23:55:21.221Z,90.20
2018-11-05T23:57:49.220Z,64.77
